Time;durP1;ratioP1;P1;durP2;ratioP2;P2;SDS_P1;SDS_P2;PMS_P1;PMS_P2;Temp;Humidity;BMP_temperature;BMP_pressure;BME280_temperature;BME280_humidity;BME280_pressure;Samples;Min_cycle;Max_cycle;Signal;HPM_P1;HPM_P2
2022/04/14 00:01:44;;;;;;;14.15;3.08;;;13.20;98.80;;;;;;5004823;28;20030;-70
2022/04/14 00:04:09;;;;;;;7.15;2.65;;;13.20;98.80;;;;;;5003844;28;20034;-70
2022/04/14 00:06:39;;;;;;;7.90;3.17;;;13.10;98.90;;;;;;5007202;28;20038;-71
2022/04/14 00:09:04;;;;;;;6.07;2.65;;;13.10;99.00;;;;;;5002597;28;20065;-74
2022/04/14 00:11:30;;;;;;;10.43;3.00;;;13.10;99.30;;;;;;5008167;28;20041;-73
2022/04/14 00:13:58;;;;;;;7.45;2.90;;;13.00;99.40;;;;;;5009492;28;20459;-72
2022/04/14 00:16:24;;;;;;;4.40;2.65;;;13.00;99.80;;;;;;5008318;28;20084;-73
2022/04/14 00:18:50;;;;;;;6.13;2.63;;;13.00;99.70;;;;;;5006904;28;20069;-73
2022/04/14 00:21:15;;;;;;;10.10;3.13;;;13.00;99.90;;;;;;5008740;28;20026;-74
2022/04/14 00:23:41;;;;;;;10.18;2.78;;;12.90;99.90;;;;;;5007061;28;20060;-73
2022/04/14 00:26:07;;;;;;;5.80;2.85;;;12.90;99.90;;;;;;5007377;28;20088;-74
2022/04/14 00:28:38;;;;;;;7.28;3.05;;;12.80;99.90;;;;;;5008909;28;20395;-73
2022/04/14 00:31:04;;;;;;;6.40;2.63;;;12.70;99.90;;;;;;5006547;28;20073;-72
2022/04/14 00:33:36;;;;;;;9.73;4.10;;;12.70;99.90;;;;;;5003983;28;20065;-72
2022/04/14 00:36:01;;;;;;;7.63;3.70;;;12.70;99.90;;;;;;5002939;28;20474;-72
2022/04/14 00:38:27;;;;;;;11.00;4.30;;;12.70;99.90;;;;;;5011222;28;20038;-72
2022/04/14 00:40:59;;;;;;;8.45;3.75;;;12.60;99.90;;;;;;5009826;28;20041;-72
2022/04/14 00:43:32;;;;;;;7.70;3.70;;;12.60;99.90;;;;;;5016746;28;20052;-72
2022/04/14 00:45:59;;;;;;;14.13;4.20;;;12.50;99.90;;;;;;5002598;28;20042;-72
2022/04/14 00:48:25;;;;;;;10.95;4.40;;;12.40;99.90;;;;;;5006699;28;20037;-72
2022/04/14 00:50:51;;;;;;;11.48;4.10;;;12.40;99.90;;;;;;5001480;28;20536;-72
2022/04/14 00:53:17;;;;;;;8.45;4.03;;;12.30;99.90;;;;;;5004111;28;20025;-72
2022/04/14 00:55:42;;;;;;;12.30;3.38;;;12.30;99.90;;;;;;5006026;28;20429;-72
2022/04/14 00:58:17;;;;;;;6.82;3.55;;;12.20;99.90;;;;;;5002833;28;20065;-71
2022/04/14 01:00:43;;;;;;;7.47;3.20;;;12.20;99.90;;;;;;5002109;28;20137;-71
2022/04/14 01:03:13;;;;;;;8.48;3.63;;;12.20;99.90;;;;;;5009007;28;20064;-72
2022/04/14 01:05:39;;;;;;;8.05;3.13;;;12.10;99.90;;;;;;5001951;28;20162;-73
2022/04/14 01:08:08;;;;;;;8.05;3.78;;;12.10;99.90;;;;;;5007882;28;20478;-73
2022/04/14 01:10:35;;;;;;;14.60;3.83;;;12.10;99.90;;;;;;5006966;28;20572;-73
2022/04/14 01:13:06;;;;;;;8.07;3.25;;;12.20;99.90;;;;;;5004662;28;20049;-73
2022/04/14 01:15:32;;;;;;;10.88;3.10;;;12.10;99.90;;;;;;5009348;28;20552;-72
2022/04/14 01:18:04;;;;;;;5.65;3.20;;;12.10;99.90;;;;;;5005731;28;20034;-70
2022/04/14 01:20:29;;;;;;;8.80;3.42;;;12.10;99.90;;;;;;5007572;28;20030;-70
2022/04/14 01:22:59;;;;;;;9.38;3.22;;;12.00;99.90;;;;;;5006176;28;20103;-71
2022/04/14 01:25:35;;;;;;;7.28;3.00;;;12.00;99.90;;;;;;5005028;28;20030;-72
2022/04/14 01:28:10;;;;;;;8.27;3.45;;;12.00;99.90;;;;;;5003853;28;20076;-70
2022/04/14 01:30:36;;;;;;;10.77;3.45;;;11.90;99.90;;;;;;5006470;28;20030;-69
2022/04/14 01:33:05;;;;;;;8.85;2.70;;;11.90;99.90;;;;;;5004780;28;20050;-70
2022/04/14 01:35:31;;;;;;;8.77;2.95;;;11.90;99.90;;;;;;5006576;28;20402;-70
2022/04/14 01:38:03;;;;;;;5.40;2.72;;;11.80;99.90;;;;;;5005987;28;20153;-69
2022/04/14 01:40:28;;;;;;;7.40;3.88;;;11.80;99.90;;;;;;5004693;28;20061;-70
2022/04/14 01:42:54;;;;;;;8.32;3.97;;;11.80;99.90;;;;;;5003816;28;20026;-72
2022/04/14 01:45:20;;;;;;;8.10;3.60;;;11.80;99.90;;;;;;5003594;28;20105;-70
2022/04/14 01:47:46;;;;;;;9.15;4.10;;;11.70;99.90;;;;;;5008646;28;20034;-70
2022/04/14 01:50:14;;;;;;;7.05;3.35;;;11.70;99.90;;;;;;5009121;28;20046;-71
2022/04/14 01:52:41;;;;;;;8.43;3.15;;;11.70;99.90;;;;;;5012025;28;20022;-70
2022/04/14 01:55:09;;;;;;;6.72;2.97;;;11.70;99.90;;;;;;5012121;28;20022;-69
2022/04/14 01:57:37;;;;;;;6.10;3.17;;;11.60;99.90;;;;;;5012137;28;20022;-70
2022/04/14 02:00:07;;;;;;;6.55;2.85;;;11.60;99.90;;;;;;5001573;28;20372;-69
2022/04/14 02:02:39;;;;;;;5.93;3.60;;;11.60;99.90;;;;;;5009443;28;20030;-70
2022/04/14 02:05:05;;;;;;;7.05;3.30;;;11.60;99.90;;;;;;5007132;28;20512;-70
2022/04/14 02:07:31;;;;;;;7.35;3.00;;;11.60;99.90;;;;;;5007731;28;20033;-70
2022/04/14 02:09:59;;;;;;;6.30;3.33;;;11.60;99.90;;;;;;5007820;28;20117;-70
2022/04/14 02:12:33;;;;;;;6.07;2.97;;;11.60;99.90;;;;;;5006828;28;20033;-69
2022/04/14 02:14:58;;;;;;;8.73;3.28;;;11.60;99.90;;;;;;5007854;28;20033;-70
2022/04/14 02:17:27;;;;;;;8.63;3.28;;;11.60;99.90;;;;;;5008936;28;20041;-69
2022/04/14 02:19:53;;;;;;;7.05;3.85;;;11.60;99.90;;;;;;5008295;28;20029;-70
2022/04/14 02:22:18;;;;;;;8.18;3.60;;;11.60;99.90;;;;;;5007581;28;20483;-69
2022/04/14 02:24:44;;;;;;;6.38;3.10;;;11.60;99.90;;;;;;5012961;28;20033;-70
2022/04/14 02:27:10;;;;;;;9.07;3.35;;;11.50;99.90;;;;;;5015269;28;20018;-70
2022/04/14 02:29:36;;;;;;;7.82;3.40;;;11.60;99.90;;;;;;5015454;28;20395;-70
2022/04/14 02:32:01;;;;;;;7.28;3.38;;;11.60;99.90;;;;;;5015510;28;20057;-70
2022/04/14 02:34:27;;;;;;;12.25;3.78;;;11.50;99.90;;;;;;5015144;28;20106;-70
2022/04/14 02:36:54;;;;;;;8.80;3.70;;;11.50;99.90;;;;;;5012639;28;20386;-70
2022/04/14 02:39:20;;;;;;;7.53;3.70;;;11.50;99.90;;;;;;5005585;28;20909;-71
2022/04/14 02:41:52;;;;;;;6.05;3.00;;;11.40;99.90;;;;;;5008197;28;20038;-71
2022/04/14 02:44:21;;;;;;;10.77;2.95;;;11.40;99.90;;;;;;5008822;28;20128;-70
2022/04/14 02:46:46;;;;;;;10.20;3.35;;;11.40;99.90;;;;;;5025038;28;20044;-71
2022/04/14 02:49:12;;;;;;;6.43;3.53;;;11.30;99.90;;;;;;5011484;28;20023;-70
2022/04/14 02:51:40;;;;;;;8.77;4.05;;;11.30;99.90;;;;;;5011163;28;20030;-70
2022/04/14 02:54:06;;;;;;;7.03;3.30;;;11.30;99.90;;;;;;5009271;28;20036;-71
2022/04/14 02:56:44;;;;;;;5.78;2.92;;;11.30;99.90;;;;;;5009491;28;20394;-70
2022/04/14 02:59:09;;;;;;;6.35;3.38;;;11.30;99.90;;;;;;5008557;28;20025;-70
2022/04/14 03:01:41;;;;;;;4.60;2.95;;;11.30;99.90;;;;;;5011286;28;20033;-70
2022/04/14 03:04:07;;;;;;;9.05;3.45;;;11.20;99.90;;;;;;5010316;28;20033;-70
2022/04/14 03:06:33;;;;;;;6.32;3.40;;;11.20;99.90;;;;;;5011282;28;20038;-70
2022/04/14 03:08:58;;;;;;;6.03;3.30;;;11.10;99.90;;;;;;5010362;28;20030;-69
2022/04/14 03:11:33;;;;;;;6.38;3.30;;;11.10;99.90;;;;;;5011985;28;20021;-69
2022/04/14 03:13:59;;;;;;;5.22;2.88;;;11.10;99.90;;;;;;5013336;28;20029;-70
2022/04/14 03:16:24;;;;;;;8.50;3.42;;;11.00;99.90;;;;;;5008703;28;20088;-70
2022/04/14 03:18:50;;;;;;;7.97;3.35;;;11.00;99.90;;;;;;5013648;28;20053;-70
2022/04/14 03:21:15;;;;;;;9.60;3.40;;;11.00;99.90;;;;;;5013678;28;20018;-71
2022/04/14 03:23:44;;;;;;;7.68;3.35;;;10.90;99.90;;;;;;5014412;28;20030;-71
2022/04/14 03:26:10;;;;;;;7.70;3.13;;;10.80;99.90;;;;;;5012590;28;20026;-70
2022/04/14 03:28:41;;;;;;;5.75;3.03;;;10.80;99.90;;;;;;5010013;28;20084;-72
2022/04/14 03:31:07;;;;;;;6.75;3.38;;;10.80;99.90;;;;;;5009506;28;20435;-71
2022/04/14 03:33:38;;;;;;;10.13;3.28;;;10.80;99.90;;;;;;5011596;28;20054;-71
2022/04/14 03:36:04;;;;;;;8.25;4.32;;;10.70;99.90;;;;;;5010019;28;20510;-71
2022/04/14 03:38:31;;;;;;;9.60;3.83;;;10.70;99.90;;;;;;5005446;28;20045;-69
2022/04/14 03:40:59;;;;;;;6.93;4.03;;;10.70;99.90;;;;;;5009530;28;20036;-71
2022/04/14 03:43:25;;;;;;;17.00;3.83;;;10.60;99.90;;;;;;5006290;28;20105;-70
2022/04/14 03:45:54;;;;;;;6.45;3.85;;;10.60;99.90;;;;;;5008354;28;20037;-70
2022/04/14 03:48:19;;;;;;;8.68;3.78;;;10.50;99.90;;;;;;5008556;28;20053;-70
2022/04/14 03:50:45;;;;;;;10.10;4.38;;;10.40;99.90;;;;;;5010163;28;20066;-70
2022/04/14 03:53:11;;;;;;;13.63;4.55;;;10.40;99.90;;;;;;5010942;28;20026;-69
2022/04/14 03:55:36;;;;;;;10.63;4.13;;;10.40;99.90;;;;;;5012500;28;20028;-70
2022/04/14 03:58:02;;;;;;;11.82;4.45;;;10.30;99.90;;;;;;5008580;28;20514;-70
2022/04/14 04:00:28;;;;;;;10.40;4.10;;;10.30;99.90;;;;;;5013371;28;20030;-71
2022/04/14 04:02:53;;;;;;;6.15;3.65;;;10.30;99.90;;;;;;5011547;28;20073;-71
2022/04/14 04:05:19;;;;;;;10.80;4.07;;;10.30;99.90;;;;;;5008701;28;20140;-70
2022/04/14 04:07:45;;;;;;;8.45;4.05;;;10.30;99.90;;;;;;5005536;28;20026;-73
2022/04/14 04:10:13;;;;;;;9.27;3.42;;;10.30;99.90;;;;;;5004637;28;20030;-70
2022/04/14 04:12:39;;;;;;;14.95;4.25;;;10.30;99.90;;;;;;5009067;28;20121;-70
2022/04/14 04:15:13;;;;;;;11.23;3.80;;;10.30;99.90;;;;;;5008752;28;20116;-70
2022/04/14 04:17:39;;;;;;;8.13;3.85;;;10.30;99.90;;;;;;5009173;28;20057;-70
2022/04/14 04:20:11;;;;;;;10.20;3.85;;;10.20;99.90;;;;;;5008449;28;20081;-70
2022/04/14 04:22:40;;;;;;;6.75;3.63;;;10.30;99.90;;;;;;5008441;28;20229;-70
2022/04/14 04:25:18;;;;;;;11.45;4.03;;;10.30;99.90;;;;;;5012174;28;20080;-71
2022/04/14 04:27:44;;;;;;;12.27;4.15;;;10.20;99.90;;;;;;5009208;28;20494;-72
2022/04/14 04:30:10;;;;;;;8.40;3.20;;;10.20;99.90;;;;;;5007262;28;20053;-73
2022/04/14 04:32:35;;;;;;;9.23;4.55;;;10.20;99.90;;;;;;5008815;28;20041;-70
2022/04/14 04:35:03;;;;;;;10.68;3.58;;;10.20;99.90;;;;;;5007285;28;20022;-69
2022/04/14 04:37:29;;;;;;;8.52;3.67;;;10.10;99.90;;;;;;5005032;28;20100;-70
2022/04/14 04:39:55;;;;;;;10.90;4.18;;;10.10;99.90;;;;;;5007260;28;20509;-70
2022/04/14 04:42:21;;;;;;;9.57;3.75;;;10.10;99.90;;;;;;5004132;28;20041;-70
2022/04/14 04:44:46;;;;;;;10.45;4.13;;;10.10;99.90;;;;;;5009281;28;20117;-70
2022/04/14 04:47:12;;;;;;;10.80;4.13;;;10.10;99.90;;;;;;5007859;28;20113;-70
2022/04/14 04:49:38;;;;;;;8.52;4.20;;;10.10;99.90;;;;;;5005570;28;20073;-70
2022/04/14 04:52:04;;;;;;;8.15;4.20;;;10.10;99.90;;;;;;5003836;28;20068;-69
2022/04/14 04:54:32;;;;;;;8.02;3.85;;;10.20;99.90;;;;;;5013075;28;20101;-70
2022/04/14 04:57:01;;;;;;;11.65;4.13;;;10.20;99.90;;;;;;5015440;28;20026;-70
2022/04/14 04:59:29;;;;;;;8.05;3.97;;;10.20;99.90;;;;;;5008887;28;20038;-69
2022/04/14 05:01:55;;;;;;;13.18;4.40;;;10.20;99.90;;;;;;4993379;28;20037;-70
2022/04/14 05:04:23;;;;;;;13.18;4.57;;;10.20;99.90;;;;;;5007766;28;20018;-70
2022/04/14 05:06:55;;;;;;;9.88;3.92;;;10.30;99.90;;;;;;5009030;28;20647;-69
2022/04/14 05:09:23;;;;;;;12.23;4.50;;;10.30;99.90;;;;;;5001458;28;20099;-70
2022/04/14 05:11:49;;;;;;;16.25;5.10;;;10.30;99.90;;;;;;5006083;28;20028;-70
2022/04/14 05:14:15;;;;;;;11.80;3.95;;;10.40;99.90;;;;;;5004548;28;20038;-70
2022/04/14 05:16:41;;;;;;;13.23;4.47;;;10.40;99.90;;;;;;5005399;28;20037;-69
2022/04/14 05:19:07;;;;;;;12.85;4.13;;;10.50;99.90;;;;;;5008214;28;20410;-69
2022/04/14 05:21:39;;;;;;;9.13;3.65;;;10.60;99.90;;;;;;5014600;28;20108;-70
2022/04/14 05:24:05;;;;;;;12.15;4.65;;;10.70;99.90;;;;;;5009280;28;20033;-70
2022/04/14 05:26:31;;;;;;;9.75;4.15;;;10.70;99.90;;;;;;5009611;28;20030;-70
2022/04/14 05:28:57;;;;;;;10.25;4.43;;;10.80;99.90;;;;;;5008559;28;20026;-71
2022/04/14 05:31:22;;;;;;;8.43;4.55;;;10.90;99.90;;;;;;5010045;28;20056;-71
2022/04/14 05:33:49;;;;;;;14.48;4.63;;;11.00;99.90;;;;;;5009774;28;20014;-71
2022/04/14 05:36:15;;;;;;;12.82;4.65;;;11.10;99.90;;;;;;5012201;28;20032;-70
2022/04/14 05:38:40;;;;;;;11.07;4.63;;;11.10;99.90;;;;;;5009478;28;20029;-71
2022/04/14 05:41:08;;;;;;;14.38;4.93;;;11.20;99.90;;;;;;5008997;28;20109;-70
2022/04/14 05:43:33;;;;;;;17.17;5.25;;;11.30;99.90;;;;;;5008197;28;20245;-70
2022/04/14 05:45:59;;;;;;;15.82;5.28;;;11.40;99.90;;;;;;5013623;28;20565;-70
2022/04/14 05:48:25;;;;;;;17.17;4.47;;;11.50;99.90;;;;;;5008350;28;20033;-71
2022/04/14 05:50:51;;;;;;;18.85;4.88;;;11.60;99.90;;;;;;5008335;28;20029;-72
2022/04/14 05:53:20;;;;;;;14.35;5.75;;;11.70;99.90;;;;;;5005563;28;20022;-70
2022/04/14 05:55:47;;;;;;;18.50;5.72;;;11.80;99.90;;;;;;5003831;28;20041;-70
2022/04/14 05:58:12;;;;;;;16.40;5.80;;;11.80;99.90;;;;;;5010906;28;20034;-69
2022/04/14 06:00:44;;;;;;;15.70;6.03;;;11.90;99.90;;;;;;5012106;28;20025;-69
2022/04/14 06:03:11;;;;;;;12.52;5.72;;;11.90;99.90;;;;;;5008320;28;20025;-70
2022/04/14 06:05:37;;;;;;;9.82;5.03;;;11.90;99.90;;;;;;5013796;28;20033;-69
2022/04/14 06:08:03;;;;;;;13.82;5.43;;;11.90;99.90;;;;;;5009972;28;20022;-72
2022/04/14 06:10:29;;;;;;;16.77;4.85;;;12.00;99.90;;;;;;5010344;28;20037;-69
2022/04/14 06:12:55;;;;;;;13.80;5.40;;;12.10;99.90;;;;;;5008275;28;20033;-69
2022/04/14 06:15:21;;;;;;;17.60;5.28;;;12.10;99.90;;;;;;5006686;28;20411;-70
2022/04/14 06:17:47;;;;;;;13.27;5.28;;;12.10;99.90;;;;;;5010373;28;20101;-69
2022/04/14 06:20:13;;;;;;;15.13;5.30;;;12.10;99.90;;;;;;5011075;28;20057;-71
2022/04/14 06:22:42;;;;;;;10.63;5.07;;;12.20;99.90;;;;;;5007356;28;20025;-70
2022/04/14 06:25:13;;;;;;;14.18;5.72;;;12.20;99.90;;;;;;5012702;28;20025;-70
2022/04/14 06:27:59;;;;;;;14.80;5.95;;;12.30;99.90;;;;;;5014397;28;20611;-70
2022/04/14 06:30:27;;;;;;;15.35;6.05;;;12.30;99.90;;;;;;5028797;28;20038;-72
2022/04/14 06:33:04;;;;;;;20.67;5.68;;;12.40;99.90;;;;;;5009691;28;20030;-69
2022/04/14 06:35:30;;;;;;;17.45;6.40;;;12.50;99.90;;;;;;5010677;28;20152;-69
2022/04/14 06:37:57;;;;;;;15.25;5.93;;;12.60;99.90;;;;;;5008705;28;21204;-69
2022/04/14 06:40:23;;;;;;;20.77;5.93;;;12.70;99.90;;;;;;5012581;28;20105;-71
2022/04/14 06:42:49;;;;;;;15.00;6.25;;;12.70;99.90;;;;;;5008597;28;20495;-69
2022/04/14 06:45:18;;;;;;;16.63;6.45;;;12.80;99.90;;;;;;5006786;28;20038;-71
2022/04/14 06:47:43;;;;;;;14.65;6.03;;;12.80;99.90;;;;;;5000527;28;20120;-70
2022/04/14 06:50:09;;;;;;;12.10;5.85;;;12.90;99.90;;;;;;5000881;28;20478;-71
2022/04/14 06:52:38;;;;;;;17.52;5.97;;;12.90;99.90;;;;;;5009074;28;20100;-69
2022/04/14 06:55:04;;;;;;;16.48;7.70;;;13.00;99.90;;;;;;5007191;28;20072;-70
2022/04/14 06:57:30;;;;;;;14.82;7.53;;;13.10;99.90;;;;;;5010447;28;20076;-70
2022/04/14 06:59:55;;;;;;;15.70;7.95;;;13.20;99.90;;;;;;5004049;28;20471;-69
2022/04/14 07:02:24;;;;;;;17.80;8.48;;;13.20;99.90;;;;;;5009876;28;20026;-70
2022/04/14 07:04:50;;;;;;;17.48;8.40;;;13.30;99.90;;;;;;5008200;28;20030;-69
2022/04/14 07:07:15;;;;;;;21.05;8.40;;;13.40;99.90;;;;;;5009118;28;20076;-70
2022/04/14 07:09:41;;;;;;;17.85;8.45;;;13.50;99.90;;;;;;5007793;28;20385;-70
2022/04/14 07:12:08;;;;;;;17.45;9.18;;;13.60;99.90;;;;;;5005384;28;20310;-70
2022/04/14 07:14:33;;;;;;;22.80;11.27;;;13.70;99.90;;;;;;5021211;22;24174;-72
2022/04/14 07:17:00;;;;;;;17.80;10.07;;;13.80;99.90;;;;;;5024215;28;20068;-70
2022/04/14 07:19:26;;;;;;;23.92;12.55;;;13.90;99.90;;;;;;5024762;28;20033;-70
2022/04/14 07:21:53;;;;;;;20.42;12.88;;;14.00;99.90;;;;;;5026099;28;20037;-70
2022/04/14 07:24:18;;;;;;;22.30;12.50;;;14.10;99.90;;;;;;5024112;28;20025;-71
2022/04/14 07:26:44;;;;;;;22.58;12.05;;;14.20;99.90;;;;;;5016162;28;20549;-71
2022/04/14 07:29:14;;;;;;;30.08;13.20;;;14.30;99.90;;;;;;5023953;28;20375;-71
2022/04/14 07:31:41;;;;;;;23.17;12.02;;;14.40;99.90;;;;;;5023758;28;20044;-71
2022/04/14 07:34:08;;;;;;;20.17;10.88;;;14.50;99.90;;;;;;5022768;28;20030;-72
2022/04/14 07:36:34;;;;;;;17.63;11.57;;;14.50;99.90;;;;;;5023281;28;20032;-72
2022/04/14 07:39:00;;;;;;;23.60;13.18;;;14.60;99.90;;;;;;5025929;28;20369;-73
2022/04/14 07:41:26;;;;;;;21.50;12.75;;;14.70;99.90;;;;;;5023503;28;20025;-71
2022/04/14 07:43:53;;;;;;;19.92;12.02;;;14.70;99.90;;;;;;5020062;28;20029;-70
2022/04/14 07:46:19;;;;;;;28.02;12.90;;;14.80;99.90;;;;;;5040582;28;20508;-72
2022/04/14 07:48:45;;;;;;;24.52;14.07;;;14.90;99.90;;;;;;5016822;28;20030;-70
2022/04/14 07:51:11;;;;;;;29.80;15.30;;;15.00;99.90;;;;;;5020114;28;20037;-71
2022/04/14 07:53:37;;;;;;;24.67;13.75;;;15.10;99.90;;;;;;5018250;28;20026;-71
2022/04/14 07:56:05;;;;;;;28.48;16.27;;;15.20;99.90;;;;;;5033239;28;20049;-71
2022/04/14 07:58:30;;;;;;;28.63;15.15;;;15.20;99.90;;;;;;5022939;28;20033;-71
2022/04/14 08:00:56;;;;;;;29.02;16.10;;;15.30;99.90;;;;;;5031463;28;20385;-71
2022/04/14 08:03:22;;;;;;;30.25;16.98;;;15.30;99.90;;;;;;5017373;28;20442;-70
2022/04/14 08:05:48;;;;;;;30.00;16.27;;;15.40;99.90;;;;;;5023440;28;20486;-70
2022/04/14 08:08:18;;;;;;;27.42;14.73;;;15.50;99.90;;;;;;5022139;28;21000;-71
2022/04/14 08:10:49;;;;;;;27.88;16.75;;;15.50;99.90;;;;;;5021920;28;20115;-71
2022/04/14 08:13:16;;;;;;;27.85;15.45;;;15.60;99.90;;;;;;5019088;28;20026;-72
2022/04/14 08:15:42;;;;;;;35.58;17.83;;;15.70;99.90;;;;;;5019126;28;20148;-71
2022/04/14 08:18:09;;;;;;;34.20;17.83;;;15.70;99.90;;;;;;5024529;28;20013;-71
2022/04/14 08:20:39;;;;;;;36.25;18.83;;;15.80;99.90;;;;;;5041887;28;20478;-71
2022/04/14 08:23:05;;;;;;;31.17;18.23;;;15.80;99.90;;;;;;5023710;28;20029;-72
2022/04/14 08:25:33;;;;;;;28.90;17.95;;;15.80;99.90;;;;;;5038449;28;20033;-71
2022/04/14 08:28:00;;;;;;;30.90;17.45;;;15.90;99.90;;;;;;5023147;28;20064;-71
2022/04/14 08:30:28;;;;;;;30.75;17.77;;;15.90;99.90;;;;;;5019992;28;20533;-72
2022/04/14 08:32:55;;;;;;;34.97;17.40;;;15.90;99.90;;;;;;5019436;28;20352;-71
2022/04/14 08:35:22;;;;;;;30.70;16.20;;;16.00;99.90;;;;;;5021182;28;20438;-70
2022/04/14 08:37:49;;;;;;;34.80;15.90;;;16.00;99.90;;;;;;5012664;28;20026;-71
2022/04/14 08:40:17;;;;;;;28.85;16.95;;;16.00;99.90;;;;;;5021727;28;20025;-70
2022/04/14 08:42:55;;;;;;;29.60;16.35;;;16.10;99.90;;;;;;5017424;28;20111;-73
2022/04/14 08:45:23;;;;;;;31.52;17.38;;;16.20;99.90;;;;;;5019216;28;20505;-72
2022/04/14 08:47:53;;;;;;;23.25;15.85;;;16.20;99.90;;;;;;5020681;28;20112;-71
2022/04/14 08:50:18;;;;;;;28.83;16.67;;;16.20;99.90;;;;;;5024373;28;20355;-71
2022/04/14 08:52:44;;;;;;;25.67;16.77;;;16.30;99.90;;;;;;5022631;28;20030;-71
2022/04/14 08:55:11;;;;;;;30.85;16.67;;;16.30;99.90;;;;;;5021160;28;20025;-72
2022/04/14 08:57:40;;;;;;;31.20;17.13;;;16.40;99.90;;;;;;5018447;28;20040;-71
2022/04/14 09:00:08;;;;;;;30.40;16.02;;;16.50;99.90;;;;;;5024746;28;20458;-72
2022/04/14 09:02:34;;;;;;;24.80;16.08;;;16.50;99.90;;;;;;5018217;28;20120;-71
2022/04/14 09:05:01;;;;;;;27.58;15.63;;;16.50;99.90;;;;;;5016564;28;20064;-72
2022/04/14 09:07:27;;;;;;;25.88;14.80;;;16.60;99.90;;;;;;5021976;28;20112;-71
2022/04/14 09:09:53;;;;;;;28.95;15.77;;;16.50;99.90;;;;;;5018962;28;20101;-72
2022/04/14 09:12:19;;;;;;;21.88;14.93;;;16.60;99.90;;;;;;5020868;28;20041;-72
2022/04/14 09:14:45;;;;;;;21.90;13.90;;;16.70;99.90;;;;;;5034296;28;20129;-70
2022/04/14 09:17:14;;;;;;;26.30;14.43;;;16.80;99.90;;;;;;5014449;28;20030;-71
2022/04/14 09:19:41;;;;;;;25.92;14.52;;;16.90;99.90;;;;;;5012183;28;20021;-71
2022/04/14 09:22:12;;;;;;;27.08;14.40;;;17.00;99.90;;;;;;5008279;28;20026;-72
2022/04/14 09:24:50;;;;;;;26.42;14.32;;;17.00;99.90;;;;;;5015560;28;20703;-72
2022/04/14 09:27:33;;;;;;;28.95;13.70;;;17.10;99.90;;;;;;5000851;28;20127;-71
2022/04/14 09:30:04;;;;;;;23.83;13.18;;;17.10;99.90;;;;;;5020616;28;20500;-71
2022/04/14 09:32:37;;;;;;;24.80;14.60;;;17.10;99.90;;;;;;5022482;28;20034;-70
2022/04/14 09:35:23;;;;;;;27.63;15.30;;;17.20;99.90;;;;;;5021203;28;20021;-71
2022/04/14 09:38:13;;;;;;;25.58;13.90;;;17.20;99.90;;;;;;5020493;28;20021;-70
2022/04/14 09:40:39;;;;;;;23.40;13.80;;;17.30;99.90;;;;;;5036655;28;20575;-71
2022/04/14 09:43:05;;;;;;;24.88;14.35;;;17.30;99.90;;;;;;5017571;28;20481;-72
2022/04/14 09:45:34;;;;;;;22.30;14.30;;;17.30;99.90;;;;;;5019640;28;20652;-71
2022/04/14 09:48:07;;;;;;;29.60;14.73;;;17.30;99.90;;;;;;5018046;28;20093;-72
2022/04/14 09:50:34;;;;;;;24.75;14.75;;;17.40;99.90;;;;;;5023472;28;20148;-72
2022/04/14 09:53:21;;;;;;;23.15;14.77;;;17.50;99.90;;;;;;5017494;28;20017;-72
2022/04/14 09:55:52;;;;;;;18.90;13.18;;;17.50;99.90;;;;;;5022161;28;20033;-70
2022/04/14 09:58:18;;;;;;;22.08;13.82;;;17.50;99.90;;;;;;5034678;28;20028;-73
2022/04/14 10:00:52;;;;;;;21.52;11.93;;;17.60;99.90;;;;;;5018477;28;20366;-71
2022/04/14 10:03:19;;;;;;;22.17;12.85;;;17.60;99.90;;;;;;5021970;28;20134;-70
2022/04/14 10:05:49;;;;;;;26.80;13.82;;;17.80;99.90;;;;;;5017744;28;20032;-73
2022/04/14 10:08:16;;;;;;;24.02;13.55;;;17.90;99.90;;;;;;5019035;28;20056;-72
2022/04/14 10:10:47;;;;;;;20.50;12.85;;;17.90;99.90;;;;;;5015936;28;20112;-72
2022/04/14 10:13:43;;;;;;;17.45;11.00;;;17.90;99.90;;;;;;5014797;28;20022;-73
2022/04/14 10:16:09;;;;;;;17.38;11.52;;;17.90;99.90;;;;;;5016318;28;20037;-72
2022/04/14 10:18:38;;;;;;;20.95;12.73;;;17.90;99.90;;;;;;5020216;28;20055;-72
2022/04/14 10:21:05;;;;;;;21.80;13.00;;;18.00;99.90;;;;;;5036055;28;20378;-72
2022/04/14 10:23:32;;;;;;;20.38;12.48;;;18.00;99.90;;;;;;5022943;28;20029;-71
2022/04/14 10:25:58;;;;;;;22.98;11.75;;;18.10;99.90;;;;;;5019472;28;20037;-72
2022/04/14 10:28:26;;;;;;;19.73;11.70;;;18.10;99.90;;;;;;5023375;28;20030;-73
2022/04/14 10:31:00;;;;;;;19.35;11.93;;;18.20;99.90;;;;;;5019643;28;20075;-73
2022/04/14 10:33:33;;;;;;;22.42;11.85;;;18.20;99.90;;;;;;5026921;28;20029;-73
2022/04/14 10:36:02;;;;;;;16.92;11.07;;;18.20;99.90;;;;;;5026069;28;20050;-72
2022/04/14 10:38:36;;;;;;;21.88;11.82;;;18.30;99.90;;;;;;5023196;28;20438;-71
2022/04/14 10:41:36;;;;;;;20.88;12.05;;;18.40;99.90;;;;;;5022771;28;20044;-72
2022/04/14 10:44:11;;;;;;;22.17;12.63;;;18.50;99.90;;;;;;5021020;28;20045;-71
2022/04/14 10:46:47;;;;;;;19.65;11.95;;;18.50;99.90;;;;;;5022337;28;20042;-73
2022/04/14 10:49:26;;;;;;;20.23;11.32;;;18.50;99.90;;;;;;5019106;28;20059;-73
2022/04/14 10:52:24;;;;;;;16.42;10.02;;;18.70;99.90;;;;;;5024973;28;20037;-73
2022/04/14 10:54:59;;;;;;;17.70;9.80;;;18.80;99.90;;;;;;5022916;28;20084;-72
2022/04/14 10:57:39;;;;;;;20.80;11.65;;;18.80;99.90;;;;;;5024743;28;20032;-73
2022/04/14 11:00:20;;;;;;;19.65;12.00;;;18.90;99.90;;;;;;5024178;28;20030;-71
2022/04/14 11:03:05;;;;;;;18.45;11.57;;;18.90;99.90;;;;;;5026015;28;20553;-72
2022/04/14 11:05:42;;;;;;;24.40;11.52;;;18.80;99.90;;;;;;5036976;28;20112;-70
2022/04/14 11:08:31;;;;;;;20.70;10.05;;;18.80;99.90;;;;;;5020536;28;20100;-73
2022/04/14 11:11:18;;;;;;;16.55;10.30;;;18.90;99.30;;;;;;5020216;28;20103;-70
2022/04/14 11:13:50;;;;;;;16.65;9.95;;;18.90;98.90;;;;;;5037131;28;20116;-70
2022/04/14 11:16:45;;;;;;;24.08;12.05;;;19.00;99.10;;;;;;5025589;28;20030;-70
2022/04/14 11:19:24;;;;;;;20.50;11.10;;;19.10;98.70;;;;;;5018409;28;20029;-70
2022/04/14 11:22:08;;;;;;;19.52;9.85;;;19.20;98.50;;;;;;5024425;28;20041;-73
2022/04/14 11:24:36;;;;;;;17.60;10.07;;;19.20;98.10;;;;;;5025698;28;20029;-71
2022/04/14 11:27:09;;;;;;;16.77;8.63;;;19.20;98.10;;;;;;5026454;28;20029;-73
2022/04/14 11:29:35;;;;;;;20.03;9.83;;;19.30;98.20;;;;;;5021107;28;20033;-71
2022/04/14 11:32:01;;;;;;;15.32;9.05;;;19.40;97.80;;;;;;5022325;28;20026;-72
2022/04/14 11:34:34;;;;;;;17.52;9.27;;;19.40;97.60;;;;;;5025146;28;20028;-72
2022/04/14 11:37:01;;;;;;;18.40;9.55;;;19.50;97.50;;;;;;5021756;28;20029;-71
2022/04/14 11:39:28;;;;;;;18.58;9.43;;;19.50;97.10;;;;;;5020387;28;20045;-72
2022/04/14 11:41:55;;;;;;;20.40;10.25;;;19.60;97.20;;;;;;5022269;28;20429;-72
2022/04/14 11:44:22;;;;;;;18.08;10.18;;;19.70;97.20;;;;;;5024947;28;20037;-72
2022/04/14 11:46:52;;;;;;;19.80;10.48;;;19.80;96.90;;;;;;5021359;28;20031;-71
2022/04/14 11:49:46;;;;;;;19.15;9.68;;;19.90;96.60;;;;;;5023261;28;20048;-71
2022/04/14 11:52:12;;;;;;;16.25;9.68;;;19.90;96.00;;;;;;5020350;28;20041;-72
2022/04/14 11:54:38;;;;;;;19.73;9.57;;;19.90;96.00;;;;;;5015177;28;20461;-71
2022/04/14 11:57:09;;;;;;;18.50;10.63;;;19.90;96.70;;;;;;5020515;28;20028;-73
2022/04/14 11:59:37;;;;;;;17.90;9.50;;;19.90;96.80;;;;;;5023322;28;20025;-70
2022/04/14 12:02:10;;;;;;;19.50;11.45;;;20.00;96.50;;;;;;5021068;28;20399;-71
2022/04/14 12:04:56;;;;;;;21.17;11.45;;;19.90;96.80;;;;;;5024132;28;20040;-71
2022/04/14 12:07:24;;;;;;;19.50;10.38;;;20.00;97.10;;;;;;5021018;28;20088;-72
2022/04/14 12:10:02;;;;;;;23.27;11.43;;;20.00;97.20;;;;;;5018093;28;20053;-72
2022/04/14 12:12:31;;;;;;;16.65;11.38;;;20.10;97.10;;;;;;5018508;28;20025;-72
2022/04/14 12:15:03;;;;;;;22.10;12.13;;;20.10;96.80;;;;;;5024775;28;20437;-71
2022/04/14 12:17:35;;;;;;;23.80;12.00;;;20.20;97.00;;;;;;5018003;28;20032;-71
2022/04/14 12:20:04;;;;;;;18.40;11.10;;;20.20;96.90;;;;;;5019690;28;20687;-74
2022/04/14 12:22:33;;;;;;;19.85;12.90;;;20.30;96.80;;;;;;5018153;28;27651;-71
2022/04/14 12:25:01;;;;;;;25.45;13.13;;;20.40;96.50;;;;;;5035824;28;20025;-72
2022/04/14 12:27:34;;;;;;;25.50;12.25;;;20.50;96.40;;;;;;5015960;28;20123;-70
2022/04/14 12:30:14;;;;;;;21.92;12.85;;;20.50;96.50;;;;;;5020949;28;20030;-73
2022/04/14 12:32:40;;;;;;;21.83;14.05;;;20.50;96.20;;;;;;5015315;28;20048;-72
2022/04/14 12:35:10;;;;;;;23.08;12.48;;;20.50;96.40;;;;;;5021689;28;20485;-72
2022/04/14 12:37:41;;;;;;;25.17;13.52;;;20.50;96.60;;;;;;5021809;28;20025;-70
2022/04/14 12:40:16;;;;;;;16.48;11.60;;;20.50;96.40;;;;;;5014204;28;20042;-72
2022/04/14 12:42:43;;;;;;;16.95;11.00;;;20.50;95.80;;;;;;5024353;28;20026;-72
2022/04/14 12:45:11;;;;;;;18.77;11.40;;;20.60;95.60;;;;;;5024462;28;20025;-72